KBED/BED METAR and TAF weather

Enter ICAO airport designator
Station Type Date Time Source
KBED METAR 2021/05/13 05:51 UTC NOAA

KBED 130551Z AUTO 00000KT 10SM CLR 07/03 A3014 RMK AO2 SLP220 T00670033 10150 20067 58003


Station Type Date Time Source
KBED Decoded METAR 2021/05/13 05:51 UTC NOAA

BEDFORD HANSCOM FIELD, MA, United States (KBED) 42-28N 071-18W 50M
May 13, 2021 - 01:51 AM EDT / 2021.05.13 0551 UTC
Wind: Calm:0
Visibility: 10 mile(s):0
Sky conditions: clear
Temperature: 44.1 F (6.7 C)
Dew Point: 37.9 F (3.3 C)
Relative Humidity: 78%
Pressure (altimeter): 30.14 in. Hg (1020 hPa)
Pressure tendency: 0.01 inches (0.3 hPa) lower than three hours ago
ob: KBED 130551Z AUTO 00000KT 10SM CLR 07/03 A3014 RMK AO2 SLP220 T00670033 10150 20067 58003
cycle: 6

Station Type Date Time Source
KBED TAF 2021/05/13 06:24 UTC NOAA

TAF KBED 130521Z 1306/1406 00000KT P6SM SCT120
FM131100 32003KT P6SM SKC
FM131800 33006KT P6SM BKN060
FM132300 29004KT P6SM FEW120

Example: see airport list